Monday, November 19, 2018, 2:20 AM EST
Back to Local

KWAL, Wallops Flight Fac Airport

Location: Wallops Island, VA, United States Lat: 37.933
Local Time: 2:20 AM EST ( 7:20 GMT) Lon: -75.467
Time Zone: US/Eastern Elev: 39 ft

Show me the last for .
Show Coded

Time T Td Feel RH Dir Speed Gust Alt SLP Vis Weather Sky Remarks
2018-11-19 01:54 41 38 38 88 260° 5 - 30.19 30.18 8 CLR None
2018-11-19 00:54 39 36 36 88 290° 5 - 30.19 30.18 9 CLR 6-hr Min Temp (1am): 39.0°F
6-hr Max Temp (1am): 44.1°F
2018-11-18 23:54 40 37 38 89 290° 3 - 30.20 30.19 9 CLR 24-hr Min Temp (12am): 33.1°F
24-hr Max Temp (12am): 55.9°F
2018-11-18 22:54 41 37 - 85 - Calm - 30.21 30.20 10 CLR None
2018-11-18 21:54 42 38 40 85 300° 3 - 30.23 30.21 10 CLR None
2018-11-18 20:54 42 39 - 88 - Calm - 30.23 30.22 10 CLR None
2018-11-18 19:54 43 40 - 88 - Calm - 30.24 30.23 10 CLR None
2018-11-18 18:54 43 40 - 88 - Calm - 30.26 30.24 10 CLR 6-hr Min Temp (7pm): 43.0°F
6-hr Max Temp (7pm): 55.9°F
2018-11-18 17:54 46 41 - 82 - Calm - 30.27 30.25 10 CLR None
2018-11-18 16:54 50 42 49 74 100° 3 - 30.27 30.26 10 CLR None
2018-11-18 15:54 53 42 - 66 130° 6 - 30.27 30.26 10 CLR None
2018-11-18 15:10 54 41 - 61 120° 7 - 30.27 - 10 SCT028 None
2018-11-18 14:54 54 41 - 61 130° 7 - 30.28 30.27 10 BKN028 None
2018-11-18 13:54 54 41 - 61 140° 8 - 30.30 30.29 10 OVC028 None
2018-11-18 12:54 55 41 - 59 120° 7 - 30.31 30.30 10 OVC028 6-hr Min Temp (1pm): 35.1°F
6-hr Max Temp (1pm): 55.9°F
2018-11-18 12:17 56 40 - 54 120° 7 - 30.32 - 10 BKN028 None
2018-11-18 11:54 55 40 - 56 110° 9 - 30.33 30.32 10 FEW028 None
2018-11-18 10:54 53 41 - 63 80° 6 - 30.36 30.35 10 FEW026 None
2018-11-18 09:54 50 39 47 65 70° 8 - 30.38 30.37 10 CLR None
2018-11-18 08:54 48 37 47 65 30° 3 - 30.39 30.38 10 CLR None
2018-11-18 07:54 40 33 38 76 340° 3 - 30.38 30.37 10 CLR None
2018-11-18 06:54 35 30 31 81 320° 5 - 30.37 30.36 9 CLR 6-hr Min Temp (7am): 33.1°F
6-hr Max Temp (7am): 37.0°F
2018-11-18 05:54 34 30 31 85 330° 3 - 30.36 30.34 10 CLR None
2018-11-18 04:54 37 31 31 78 340° 8 - 30.34 30.33 10 CLR None
2018-11-18 03:54 34 30 31 85 320° 3 - 30.35 30.33 10 CLR None
2018-11-18 02:54 33 30 29 88 330° 5 - 30.34 30.33 10 CLR None

Support USWX by starting your Amazon purchase here.